Flight Track Log - Related Links

Times and Time Zones

All times are in EDT time to prevent confusion due to time zone crossing. See the N1177R flight status page for this flight to view local times or setup timezone preferences in your user account.

Time Position Orientation Groundspeed Altitude Reporting Facility
EDT Latitude Longitude Course Direction KTS MPH feet Rate Location/Type
Fri 11:55:25 AM 34.7467 -82.8758 352° North 101 116 2,800  Level Atlanta Center
Fri 11:56:25 AM 34.7758 -82.8806 352° North 101 116 3,600 750 Climbing Atlanta Center
Fri 11:57:25 AM 34.8053 -82.8928 341° North 107 123 4,300 600 Climbing Atlanta Center
Fri 11:58:25 AM 34.8344 -82.9000 349° North 107 123 4,800 600 Climbing Atlanta Center
Fri 11:59:25 AM 34.8636 -82.8944 North 107 123 5,500 700 Climbing Atlanta Center
Fri 12:00:00 PM 34.9135 -82.9356 352° North  Level FlightAware Approximate
Fri 12:00:25 PM 34.8908 -82.8892 North 102 117 6,200  Level Atlanta Center
Fri 12:01:25 PM 34.9178 -82.8711 29° Northeast 102 117 6,800 600 Climbing Atlanta Center
Fri 12:02:25 PM 34.9492 -82.8681 North 102 117 7,400 650 Climbing Atlanta Center
Fri 12:03:25 PM 34.9825 -82.8753 350° North 107 123 8,100 600 Climbing Atlanta Center
Fri 12:04:25 PM 35.0158 -82.8797 354° North 112 129 8,600 550 Climbing Atlanta Center
Fri 12:05:25 PM 35.0514 -82.8894 347° North 117 135 9,200 500 Climbing Atlanta Center
Fri 12:06:25 PM 35.0850 -82.8967 350° North 123 142 9,600 400 Climbing Atlanta Center
Fri 12:07:25 PM 35.1206 -82.9036 351° North 123 142 10,000 250 Climbing Atlanta Center
Fri 12:08:25 PM 35.1622 -82.9056 358° North 128 147 10,100 50 Climbing Atlanta Center
Fri 12:09:25 PM 35.2019 -82.9103 354° North 147 169 10,100  Level Atlanta Center
Fri 12:10:25 PM 35.2458 -82.9069 North 147 169 10,100  Level Atlanta Center
Fri 12:11:25 PM 35.2894 -82.9014 North 152 175 10,100  Level Atlanta Center
Fri 12:12:25 PM 35.3353 -82.9033 358° North 157 181 10,100  Level Atlanta Center
Fri 12:13:25 PM 35.3772 -82.9003 North 152 175 10,100  Level Atlanta Center
Fri 12:14:25 PM 35.4250 -82.9019 358° North 157 181 10,100  Level Atlanta Center
Fri 12:15:25 PM 35.4731 -82.9039 358° North 162 186 10,100  Level Atlanta Center
Fri 12:16:25 PM 35.5169 -82.9083 355° North 162 186 10,100  Level Atlanta Center
Fri 12:17:25 PM 35.5608 -82.9078 North 157 181 10,100  Level Atlanta Center
Fri 12:18:25 PM 35.6025 -82.9072 North 157 181 10,100  Level Atlanta Center
Fri 12:19:25 PM 35.6464 -82.9067 North 157 181 10,100  Level Atlanta Center
Fri 12:20:25 PM 35.6858 -82.9086 358° North 157 181 10,100 -100 Level Atlanta Center
Fri 12:21:25 PM 35.7319 -82.9081 North 157 181 9,900 -68 Descending Atlanta Center
Fri 12:23:22 PM 35.8175 -82.9053 North 158 182 9,900  Level Indianapolis Center
Fri 12:24:24 PM 35.8597 -82.9078 357° North 155 178 9,900  Level Indianapolis Center
Fri 12:25:26 PM 35.9011 -82.9050 North 150 173 9,900  Level Indianapolis Center
Fri 12:26:28 PM 35.9439 -82.9067 358° North 150 173 9,900  Level Indianapolis Center
Fri 12:27:29 PM 35.9864 -82.9058 North 153 176 9,900  Level Indianapolis Center
Fri 12:28:31 PM 36.0281 -82.9069 359° North 150 173 9,900  Level Indianapolis Center
Fri 12:29:33 PM 36.0683 -82.9208 344° North 149 171 9,900  Level Indianapolis Center
Fri 12:30:35 PM 36.1167 -82.9367 345° North 152 175 9,900  Level Indianapolis Center
Fri 12:31:37 PM 36.1586 -82.9478 348° North 153 176 9,900  Level Indianapolis Center
Fri 12:32:38 PM 36.2011 -82.9569 350° North 155 178 9,900  Level Indianapolis Center
Fri 12:33:40 PM 36.2436 -82.9681 348° North 156 180 9,900  Level Indianapolis Center
Fri 12:34:42 PM 36.2878 -82.9800 348° North 159 183 9,900  Level Indianapolis Center
Fri 12:35:44 PM 36.3311 -82.9889 351° North 159 183 9,900  Level Indianapolis Center
Fri 12:36:46 PM 36.3797 -83.0014 348° North 155 178 9,900 78 Level Indianapolis Center
Fri 12:37:01 PM 36.3875 -83.0044 342° North 155 178 10,000 44 Climbing Atlanta Center
Fri 12:39:01 PM 36.4711 -83.0267 348° North 159 183 10,000 -26 Level Atlanta Center
Fri 12:40:53 PM 36.5508 -83.0439 350° North 156 180 9,900 -34 Descending Indianapolis Center
Fri 12:41:55 PM 36.5939 -83.0547 349° North 156 180 9,900  Level Indianapolis Center
Fri 12:42:57 PM 36.6431 -83.0675 348° North 155 178 9,900  Level Indianapolis Center
Fri 12:43:59 PM 36.6856 -83.0775 349° North 154 177 9,900  Level Indianapolis Center
Fri 12:45:01 PM 36.7286 -83.0889 348° North 156 180 9,900  Level Indianapolis Center
Fri 12:46:03 PM 36.7717 -83.0994 349° North 156 180 9,900 48 Level Indianapolis Center
Fri 12:47:05 PM 36.8150 -83.1100 349° North 157 181 10,000 48 Climbing Indianapolis Center
Fri 12:48:07 PM 36.8575 -83.1208 348° North 156 180 10,000  Level Indianapolis Center
Fri 12:49:09 PM 36.9014 -83.1317 349° North 158 182 10,000  Level Indianapolis Center
Fri 12:50:11 PM 36.9514 -83.1439 349° North 156 180 10,000  Level Indianapolis Center
Fri 12:51:13 PM 36.9950 -83.1556 348° North 158 182 10,000  Level Indianapolis Center
Fri 12:52:15 PM 37.0383 -83.1658 349° North 158 182 10,000  Level Indianapolis Center
Fri 12:53:17 PM 37.0814 -83.1769 348° North 156 180 10,000  Level Indianapolis Center
Fri 12:54:18 PM 37.1244 -83.1875 349° North 157 181 10,000 49 Level Indianapolis Center
Fri 12:55:20 PM 37.1664 -83.1972 350° North 155 178 10,100 48 Climbing Indianapolis Center
Fri 12:56:22 PM 37.2156 -83.2097 349° North 154 177 10,100  Level Indianapolis Center
Fri 12:57:24 PM 37.2589 -83.2222 347° North 158 182 10,100  Level Indianapolis Center
Fri 12:58:26 PM 37.3022 -83.2328 349° North 159 183 10,100  Level Indianapolis Center
Fri 12:59:28 PM 37.3447 -83.2431 349° North 156 180 10,100  Level Indianapolis Center
Fri 01:00:30 PM 37.3875 -83.2536 349° North 155 178 10,100  Level Indianapolis Center
Fri 01:01:33 PM 37.4306 -83.2650 348° North 157 181 10,100  Level Indianapolis Center
Fri 01:02:35 PM 37.4811 -83.2778 349° North 158 182 10,100 -48 Level Indianapolis Center
Fri 01:03:37 PM 37.5244 -83.2900 347° North 158 182 10,000 -48 Descending Indianapolis Center
Fri 01:04:39 PM 37.5683 -83.3006 349° North 160 184 10,000  Level Indianapolis Center
Fri 01:05:41 PM 37.6106 -83.3108 349° North 156 180 10,000  Level Indianapolis Center
Fri 01:06:43 PM 37.6550 -83.3206 350° North 159 183 10,000  Level Indianapolis Center
Fri 01:07:45 PM 37.6981 -83.3344 346° North 160 184 10,000  Level Indianapolis Center
Fri 01:08:47 PM 37.7489 -83.3469 349° North 160 184 10,000  Level Indianapolis Center
Fri 01:09:49 PM 37.7942 -83.3586 348° North 165 190 10,000  Level Indianapolis Center
Fri 01:10:51 PM 37.8386 -83.3686 350° North 162 186 10,000  Level Indianapolis Center
Fri 01:11:53 PM 37.8819 -83.3806 348° North 160 184 10,000  Level Indianapolis Center
Fri 01:12:55 PM 37.9267 -83.3922 348° North 163 188 10,000  Level Indianapolis Center
Fri 01:13:57 PM 37.9781 -83.4044 349° North 161 185 10,000  Level Indianapolis Center
Fri 01:14:59 PM 38.0239 -83.4172 348° North 166 191 10,000  Level Indianapolis Center
Fri 01:16:01 PM 38.0686 -83.4283 349° North 164 189 10,000 48 Level Indianapolis Center
Fri 01:17:03 PM 38.1133 -83.4411 347° North 163 188 10,100 48 Climbing Indianapolis Center
Fri 01:18:05 PM 38.1594 -83.4522 349° North 167 192 10,100  Level Indianapolis Center
Fri 01:19:07 PM 38.2047 -83.4642 348° North 166 191 10,100  Level Indianapolis Center
Fri 01:20:09 PM 38.2569 -83.4744 351° North 163 188 10,100  Level Indianapolis Center
Fri 01:21:11 PM 38.3011 -83.4872 347° North 163 188 10,100  Level Indianapolis Center
Fri 01:22:13 PM 38.3447 -83.5019 345° North 162 186 10,100 -48 Level Indianapolis Center
Fri 01:23:15 PM 38.3894 -83.5150 347° North 164 189 10,000 -48 Descending Indianapolis Center
Fri 01:24:17 PM 38.4350 -83.5261 349° North 166 191 10,000  Level Indianapolis Center
Fri 01:25:19 PM 38.4867 -83.5400 348° North 164 189 10,000  Level Indianapolis Center
Fri 01:26:21 PM 38.5319 -83.5508 349° North 164 189 10,000  Level Indianapolis Center
Fri 01:27:23 PM 38.5761 -83.5608 350° North 162 186 10,000  Level Indianapolis Center
Fri 01:28:25 PM 38.6206 -83.5736 347° North 163 188 10,000  Level Indianapolis Center
Fri 01:29:27 PM 38.6631 -83.5858 347° North 163 188 10,000  Level Indianapolis Center
Fri 01:30:29 PM 38.7081 -83.5975 349° North 164 189 10,000  Level Indianapolis Center
Fri 01:31:30 PM 38.7603 -83.6100 349° North 162 186 10,000  Level Indianapolis Center
Fri 01:32:32 PM 38.8050 -83.6219 348° North 162 186 10,000  Level Indianapolis Center
Fri 01:33:34 PM 38.8489 -83.6336 348° North 161 185 10,000  Level Indianapolis Center
Fri 01:34:36 PM 38.8933 -83.6461 348° North 162 186 10,000  Level Indianapolis Center
Fri 01:35:38 PM 38.9378 -83.6561 350° North 161 185 10,000  Level Indianapolis Center
Fri 01:36:40 PM 38.9814 -83.6703 346° North 160 184 10,000  Level Indianapolis Center
Fri 01:37:42 PM 39.0264 -83.6819 349° North 163 188 10,000  Level Indianapolis Center
Fri 01:38:26 PM 39.0633 -83.6908 349° North 162 186 10,000  Level Indianapolis Center
Fri 01:38:43 PM 39.0703 -83.6917 355° North 159 183 10,000  Level Indianapolis Center
Fri 01:39:45 PM 39.1211 -83.7067 347° North 159 183 10,000  Level Indianapolis Center
Fri 01:40:09 PM 39.1372 -83.7108 349° North 160 184 10,000  Level Indianapolis Center
Fri 01:40:47 PM 39.1650 -83.7178 349° North 157 181 10,000  Level Indianapolis Center
Fri 01:41:10 PM 39.1844 -83.7219 351° North 158 182 10,000  Level Indianapolis Center
Fri 01:41:49 PM 39.2097 -83.7300 346° North 161 185 10,000  Level Indianapolis Center
Fri 01:42:11 PM 39.2236 -83.7322 353° North 159 183 10,000  Level Indianapolis Center
Fri 01:42:51 PM 39.2525 -83.7417 346° North 157 181 10,000  Level Indianapolis Center
Fri 01:43:12 PM 39.2706 -83.7464 349° North 160 184 10,000 98 Level Indianapolis Center
Fri 01:43:52 PM 39.2975 -83.7528 350° North 163 188 10,100  Climbing Indianapolis Center
Fri 01:44:13 PM 39.3136 -83.7597 342° North 159 183 10,000  Descending Indianapolis Center
Fri 01:44:54 PM 39.3400 -83.7656 350° North 157 181 10,100  Climbing Indianapolis Center
Fri 01:45:13 PM 39.3589 -83.7708 348° North 159 183 10,000  Descending Indianapolis Center
Fri 01:45:56 PM 39.3847 -83.7761 351° North 160 184 10,100 98 Climbing Indianapolis Center
Fri 01:46:14 PM 39.4019 -83.7842 340° North 158 182 10,100 -97 Level Indianapolis Center
Fri 01:46:58 PM 39.4278 -83.7892 351° North 159 183 10,000 -98 Descending Indianapolis Center
Fri 01:47:15 PM 39.4472 -83.7953 346° North 160 184 10,000  Level Indianapolis Center
Fri 01:48:00 PM 39.4722 -83.8006 348° North 160 184 10,000  Level Indianapolis Center
Fri 01:48:22 PM 39.4925 -83.8064 347° North 159 183 10,000 98 Level Indianapolis Center
Fri 01:49:00 PM 39.5213 -83.8149 348° North  Level FlightAware Approximate
Fri 01:49:01 PM 39.5231 -83.8139 349° North 158 182 10,100  Level Indianapolis Center
Fri 01:49:22 PM 39.5394 -83.8206 343° North 160 184 10,000  Descending Indianapolis Center
Fri 01:50:03 PM 39.5669 -83.8253 352° North 159 183 10,100  Climbing Indianapolis Center
Fri 01:50:23 PM 39.5828 -83.8314 343° North 158 182 10,000  Descending Indianapolis Center
Fri 01:51:05 PM 39.6108 -83.8383 349° North 159 183 10,100  Climbing Indianapolis Center
Fri 01:51:24 PM 39.6258 -83.8422 349° North 161 185 10,000 -97 Descending Indianapolis Center
Fri 01:52:07 PM 39.6550 -83.8500 348° North 161 185 10,000 58 Level Indianapolis Center
Fri 01:53:08 PM 39.6994 -83.8625 348° North 161 185 10,100 76 Climbing Indianapolis Center
Fri 01:53:26 PM 39.7142 -83.8669 347° North 161 185 10,100  Level Indianapolis Center
Fri 01:54:10 PM 39.7436 -83.8750 348° North 161 185 10,100 -98 Level Indianapolis Center
Fri 01:54:27 PM 39.7592 -83.8808 344° North 162 186 10,000  Descending Indianapolis Center
Fri 01:55:12 PM 39.7881 -83.8867 351° North 160 184 10,100 98 Climbing Indianapolis Center
Fri 01:55:28 PM 39.8044 -83.8922 345° North 161 185 10,100  Level Indianapolis Center
Fri 01:56:14 PM 39.8322 -83.8981 351° North 159 183 10,100  Level Indianapolis Center
Fri 01:56:29 PM 39.8475 -83.9031 346° North 161 185 10,100 -97 Level Indianapolis Center
Fri 01:57:16 PM 39.8769 -83.9108 349° North 162 186 10,000  Descending Indianapolis Center
Fri 01:57:36 PM 39.8969 -83.9150 351° North 163 188 10,100 98 Climbing Indianapolis Center
Fri 01:58:17 PM 39.9217 -83.9231 346° North 162 186 10,100  Level Indianapolis Center
Fri 01:59:19 PM 39.9669 -83.9350 349° North 163 188 10,100  Level Indianapolis Center
Fri 02:00:21 PM 40.0183 -83.9497 348° North 162 186 10,100  Level Indianapolis Center
Fri 02:01:23 PM 40.0636 -83.9614 349° North 163 188 10,100  Level Indianapolis Center
Fri 02:02:25 PM 40.1078 -83.9736 348° North 161 185 10,100  Level Indianapolis Center
Fri 02:03:27 PM 40.1531 -83.9858 348° North 162 186 10,100  Level Indianapolis Center
Fri 02:04:29 PM 40.1972 -83.9983 348° North 162 186 10,100  Level Indianapolis Center
Fri 02:05:30 PM 40.2408 -84.0094 349° North 158 182 10,100 -49 Level Indianapolis Center
Fri 02:06:32 PM 40.2869 -84.0228 348° North 166 191 10,000  Descending Indianapolis Center
Fri 02:07:33 PM 40.3358 -84.0375 347° North 162 186 10,100 48 Climbing Indianapolis Center
Fri 02:08:36 PM 40.3753 -84.0481 348° North 162 186 10,100  Level Indianapolis Center
Fri 02:09:38 PM 40.4272 -84.0619 348° North 162 186 10,100  Level Indianapolis Center
Fri 02:10:39 PM 40.4711 -84.0739 348° North 160 184 10,100 -49 Level Indianapolis Center
Fri 02:11:41 PM 40.5156 -84.0864 348° North 162 186 10,000 -48 Descending Indianapolis Center
Fri 02:12:43 PM 40.5592 -84.0994 347° North 161 185 10,000 48 Level Indianapolis Center
Fri 02:13:45 PM 40.6042 -84.1122 348° North 162 186 10,100 48 Climbing Indianapolis Center
Fri 02:14:47 PM 40.6489 -84.1236 349° North 162 186 10,100  Level Indianapolis Center
Fri 02:15:49 PM 40.6942 -84.1367 348° North 164 189 10,100 -49 Level Indianapolis Center
Fri 02:16:50 PM 40.7389 -84.1481 349° North 162 186 10,000  Descending Indianapolis Center
Fri 02:17:52 PM 40.7914 -84.1617 349° North 163 188 10,100 48 Climbing Indianapolis Center
Fri 02:18:54 PM 40.8361 -84.1742 348° North 163 188 10,100  Level Indianapolis Center
Fri 02:19:56 PM 40.8806 -84.1867 348° North 162 186 10,100 -48 Level Indianapolis Center
Fri 02:20:58 PM 40.9242 -84.1994 348° North 159 183 10,000  Descending Indianapolis Center
Fri 02:22:00 PM 40.9694 -84.2117 348° North 164 189 10,100  Climbing Indianapolis Center
Fri 02:23:01 PM 41.0133 -84.2250 347° North 161 185 10,000  Descending Indianapolis Center
Fri 02:24:03 PM 41.0575 -84.2369 348° North 161 185 10,100 48 Climbing Indianapolis Center
Fri 02:25:05 PM 41.1025 -84.2500 348° North 162 186 10,100  Level Indianapolis Center
Fri 02:26:07 PM 41.1472 -84.2619 349° North 163 188 10,100  Level Indianapolis Center
Fri 02:27:09 PM 41.1994 -84.2783 347° North 164 189 10,100  Level Indianapolis Center
Fri 02:28:11 PM 41.2444 -84.2911 348° North 164 189 10,100  Level Indianapolis Center

Login

Don't have an account? Register now (free) for customized features, flight alerts, and more!